sensor_id;sensor_type;location;lat;lon;timestamp;P1;durP1;ratioP1;P2;durP2;ratioP2
70216;SDS011;65567;55.684;37.570;2023-07-29T00:02:01;6.35;;;2.17;;
70216;SDS011;65567;55.684;37.570;2023-07-29T00:04:27;4.13;;;2.10;;
70216;SDS011;65567;55.684;37.570;2023-07-29T00:06:53;5.07;;;2.17;;
70216;SDS011;65567;55.684;37.570;2023-07-29T00:09:18;3.78;;;2.00;;
70216;SDS011;65567;55.684;37.570;2023-07-29T00:11:51;5.40;;;2.53;;
70216;SDS011;65567;55.684;37.570;2023-07-29T00:14:17;4.25;;;2.22;;
70216;SDS011;65567;55.684;37.570;2023-07-29T00:16:42;3.88;;;2.85;;
70216;SDS011;65567;55.684;37.570;2023-07-29T00:19:08;3.35;;;2.17;;
70216;SDS011;65567;55.684;37.570;2023-07-29T00:21:33;3.75;;;1.90;;
70216;SDS011;65567;55.684;37.570;2023-07-29T00:23:59;11.10;;;2.47;;
70216;SDS011;65567;55.684;37.570;2023-07-29T00:26:26;4.60;;;2.40;;
70216;SDS011;65567;55.684;37.570;2023-07-29T00:28:54;4.30;;;2.03;;
70216;SDS011;65567;55.684;37.570;2023-07-29T00:31:20;6.25;;;2.40;;
70216;SDS011;65567;55.684;37.570;2023-07-29T00:33:45;2.97;;;1.90;;
70216;SDS011;65567;55.684;37.570;2023-07-29T00:36:11;4.80;;;2.30;;
70216;SDS011;65567;55.684;37.570;2023-07-29T00:38:37;4.53;;;2.40;;
70216;SDS011;65567;55.684;37.570;2023-07-29T00:41:02;3.45;;;2.20;;
70216;SDS011;65567;55.684;37.570;2023-07-29T00:43:28;6.45;;;2.30;;
70216;SDS011;65567;55.684;37.570;2023-07-29T00:45:54;3.75;;;2.20;;
70216;SDS011;65567;55.684;37.570;2023-07-29T00:48:19;5.43;;;2.10;;
70216;SDS011;65567;55.684;37.570;2023-07-29T00:50:45;3.25;;;2.00;;
70216;SDS011;65567;55.684;37.570;2023-07-29T00:53:11;6.43;;;2.40;;
70216;SDS011;65567;55.684;37.570;2023-07-29T00:55:37;5.03;;;2.30;;
70216;SDS011;65567;55.684;37.570;2023-07-29T00:58:02;4.25;;;2.35;;
70216;SDS011;65567;55.684;37.570;2023-07-29T01:00:28;5.05;;;2.42;;
70216;SDS011;65567;55.684;37.570;2023-07-29T01:02:53;4.07;;;2.10;;
70216;SDS011;65567;55.684;37.570;2023-07-29T01:05:20;3.42;;;2.30;;
70216;SDS011;65567;55.684;37.570;2023-07-29T01:07:56;5.70;;;2.00;;
70216;SDS011;65567;55.684;37.570;2023-07-29T01:16:03;4.30;;;1.98;;
70216;SDS011;65567;55.684;37.570;2023-07-29T01:18:40;3.33;;;2.20;;
70216;SDS011;65567;55.684;37.570;2023-07-29T01:21:08;4.10;;;2.00;;
70216;SDS011;65567;55.684;37.570;2023-07-29T01:23:35;3.72;;;2.10;;
70216;SDS011;65567;55.684;37.570;2023-07-29T01:26:01;3.90;;;2.22;;
70216;SDS011;65567;55.684;37.570;2023-07-29T01:28:28;7.07;;;2.40;;
70216;SDS011;65567;55.684;37.570;2023-07-29T01:30:58;3.90;;;2.50;;
70216;SDS011;65567;55.684;37.570;2023-07-29T01:33:33;4.05;;;2.40;;
70216;SDS011;65567;55.684;37.570;2023-07-29T01:36:11;5.13;;;2.38;;
70216;SDS011;65567;55.684;37.570;2023-07-29T01:38:40;4.68;;;3.13;;
70216;SDS011;65567;55.684;37.570;2023-07-29T01:41:07;6.57;;;2.63;;
70216;SDS011;65567;55.684;37.570;2023-07-29T01:43:33;4.35;;;2.60;;
70216;SDS011;65567;55.684;37.570;2023-07-29T01:46:04;4.03;;;2.25;;
70216;SDS011;65567;55.684;37.570;2023-07-29T01:48:39;3.85;;;2.70;;
70216;SDS011;65567;55.684;37.570;2023-07-29T01:51:05;3.47;;;2.60;;
70216;SDS011;65567;55.684;37.570;2023-07-29T01:53:30;4.97;;;2.78;;
70216;SDS011;65567;55.684;37.570;2023-07-29T01:55:56;6.90;;;2.67;;
70216;SDS011;65567;55.684;37.570;2023-07-29T01:58:22;2.92;;;2.33;;
70216;SDS011;65567;55.684;37.570;2023-07-29T02:00:48;3.85;;;2.30;;
70216;SDS011;65567;55.684;37.570;2023-07-29T02:03:13;7.28;;;2.75;;
70216;SDS011;65567;55.684;37.570;2023-07-29T02:05:39;5.95;;;2.70;;
70216;SDS011;65567;55.684;37.570;2023-07-29T02:08:04;4.10;;;2.83;;
70216;SDS011;65567;55.684;37.570;2023-07-29T02:10:30;4.07;;;2.30;;
70216;SDS011;65567;55.684;37.570;2023-07-29T02:12:55;4.45;;;2.80;;
70216;SDS011;65567;55.684;37.570;2023-07-29T02:15:20;3.58;;;2.40;;
70216;SDS011;65567;55.684;37.570;2023-07-29T02:17:46;3.17;;;2.20;;
70216;SDS011;65567;55.684;37.570;2023-07-29T02:20:11;3.75;;;2.80;;
70216;SDS011;65567;55.684;37.570;2023-07-29T02:22:37;4.10;;;2.42;;
70216;SDS011;65567;55.684;37.570;2023-07-29T02:25:02;5.03;;;2.53;;
70216;SDS011;65567;55.684;37.570;2023-07-29T02:27:28;4.97;;;2.20;;
70216;SDS011;65567;55.684;37.570;2023-07-29T02:29:54;6.55;;;2.28;;
70216;SDS011;65567;55.684;37.570;2023-07-29T02:32:20;3.60;;;2.55;;
70216;SDS011;65567;55.684;37.570;2023-07-29T02:34:46;3.65;;;2.25;;
70216;SDS011;65567;55.684;37.570;2023-07-29T02:37:11;4.15;;;2.90;;
70216;SDS011;65567;55.684;37.570;2023-07-29T02:39:37;4.53;;;2.50;;
70216;SDS011;65567;55.684;37.570;2023-07-29T02:42:02;4.00;;;2.40;;
70216;SDS011;65567;55.684;37.570;2023-07-29T02:44:28;4.22;;;2.22;;
70216;SDS011;65567;55.684;37.570;2023-07-29T02:46:54;3.17;;;2.30;;
70216;SDS011;65567;55.684;37.570;2023-07-29T02:49:19;4.32;;;2.50;;
70216;SDS011;65567;55.684;37.570;2023-07-29T02:51:45;3.28;;;2.13;;
70216;SDS011;65567;55.684;37.570;2023-07-29T02:54:10;3.17;;;2.17;;
70216;SDS011;65567;55.684;37.570;2023-07-29T02:56:36;3.33;;;2.10;;
70216;SDS011;65567;55.684;37.570;2023-07-29T02:59:01;6.10;;;2.65;;
70216;SDS011;65567;55.684;37.570;2023-07-29T03:01:26;3.67;;;2.42;;
70216;SDS011;65567;55.684;37.570;2023-07-29T03:03:52;3.00;;;2.70;;
70216;SDS011;65567;55.684;37.570;2023-07-29T03:06:18;5.18;;;2.47;;
70216;SDS011;65567;55.684;37.570;2023-07-29T03:08:44;3.88;;;2.40;;
70216;SDS011;65567;55.684;37.570;2023-07-29T03:11:10;4.60;;;2.80;;
70216;SDS011;65567;55.684;37.570;2023-07-29T03:13:37;3.85;;;2.72;;
70216;SDS011;65567;55.684;37.570;2023-07-29T03:16:06;6.53;;;2.63;;
70216;SDS011;65567;55.684;37.570;2023-07-29T03:18:35;3.55;;;2.70;;
70216;SDS011;65567;55.684;37.570;2023-07-29T03:21:01;6.03;;;3.20;;
70216;SDS011;65567;55.684;37.570;2023-07-29T03:23:28;6.38;;;2.90;;
70216;SDS011;65567;55.684;37.570;2023-07-29T03:25:57;4.95;;;3.72;;
70216;SDS011;65567;55.684;37.570;2023-07-29T03:28:27;5.13;;;2.95;;
70216;SDS011;65567;55.684;37.570;2023-07-29T03:30:54;7.15;;;3.00;;
70216;SDS011;65567;55.684;37.570;2023-07-29T03:33:20;4.15;;;2.70;;
70216;SDS011;65567;55.684;37.570;2023-07-29T03:35:48;6.97;;;3.28;;
70216;SDS011;65567;55.684;37.570;2023-07-29T03:38:14;4.57;;;3.05;;
70216;SDS011;65567;55.684;37.570;2023-07-29T03:40:40;5.10;;;3.20;;
70216;SDS011;65567;55.684;37.570;2023-07-29T03:43:06;6.72;;;3.38;;
70216;SDS011;65567;55.684;37.570;2023-07-29T03:45:32;6.65;;;3.85;;
70216;SDS011;65567;55.684;37.570;2023-07-29T03:47:58;6.40;;;3.72;;
70216;SDS011;65567;55.684;37.570;2023-07-29T03:50:24;7.05;;;3.70;;
70216;SDS011;65567;55.684;37.570;2023-07-29T03:52:50;4.82;;;3.50;;
70216;SDS011;65567;55.684;37.570;2023-07-29T03:55:15;5.05;;;3.53;;
70216;SDS011;65567;55.684;37.570;2023-07-29T03:57:41;6.90;;;3.70;;
70216;SDS011;65567;55.684;37.570;2023-07-29T04:00:07;6.07;;;3.55;;
70216;SDS011;65567;55.684;37.570;2023-07-29T04:02:34;5.18;;;3.30;;
70216;SDS011;65567;55.684;37.570;2023-07-29T04:05:02;4.63;;;3.08;;
70216;SDS011;65567;55.684;37.570;2023-07-29T04:07:29;5.43;;;3.35;;
70216;SDS011;65567;55.684;37.570;2023-07-29T04:09:55;5.50;;;3.20;;
70216;SDS011;65567;55.684;37.570;2023-07-29T04:12:22;4.72;;;3.15;;
70216;SDS011;65567;55.684;37.570;2023-07-29T04:14:50;4.13;;;2.97;;
70216;SDS011;65567;55.684;37.570;2023-07-29T04:17:16;4.38;;;3.25;;
70216;SDS011;65567;55.684;37.570;2023-07-29T04:19:41;5.25;;;3.22;;
70216;SDS011;65567;55.684;37.570;2023-07-29T04:22:06;4.80;;;3.47;;
70216;SDS011;65567;55.684;37.570;2023-07-29T04:24:32;5.75;;;3.25;;
70216;SDS011;65567;55.684;37.570;2023-07-29T04:26:57;5.68;;;2.90;;
70216;SDS011;65567;55.684;37.570;2023-07-29T04:29:23;5.80;;;3.38;;
70216;SDS011;65567;55.684;37.570;2023-07-29T04:31:49;6.38;;;3.67;;
70216;SDS011;65567;55.684;37.570;2023-07-29T04:34:15;4.45;;;3.47;;
70216;SDS011;65567;55.684;37.570;2023-07-29T04:36:41;5.13;;;3.08;;
70216;SDS011;65567;55.684;37.570;2023-07-29T04:39:06;4.53;;;3.05;;
70216;SDS011;65567;55.684;37.570;2023-07-29T04:41:31;5.20;;;3.03;;
70216;SDS011;65567;55.684;37.570;2023-07-29T04:43:57;5.43;;;3.58;;
70216;SDS011;65567;55.684;37.570;2023-07-29T04:46:22;6.45;;;3.30;;
70216;SDS011;65567;55.684;37.570;2023-07-29T04:48:48;4.65;;;3.47;;
70216;SDS011;65567;55.684;37.570;2023-07-29T04:51:13;5.25;;;3.08;;
70216;SDS011;65567;55.684;37.570;2023-07-29T04:53:39;7.00;;;3.30;;
70216;SDS011;65567;55.684;37.570;2023-07-29T04:56:04;5.47;;;3.40;;
70216;SDS011;65567;55.684;37.570;2023-07-29T04:58:30;7.22;;;3.20;;
70216;SDS011;65567;55.684;37.570;2023-07-29T05:00:59;4.22;;;2.97;;
70216;SDS011;65567;55.684;37.570;2023-07-29T05:03:25;6.00;;;3.33;;
70216;SDS011;65567;55.684;37.570;2023-07-29T05:05:51;5.70;;;3.08;;
70216;SDS011;65567;55.684;37.570;2023-07-29T05:08:18;5.00;;;3.40;;
70216;SDS011;65567;55.684;37.570;2023-07-29T05:10:44;4.07;;;3.10;;
70216;SDS011;65567;55.684;37.570;2023-07-29T05:13:09;6.65;;;3.15;;
70216;SDS011;65567;55.684;37.570;2023-07-29T05:15:35;5.82;;;3.33;;
70216;SDS011;65567;55.684;37.570;2023-07-29T05:18:00;4.82;;;2.90;;
70216;SDS011;65567;55.684;37.570;2023-07-29T05:20:26;4.38;;;2.60;;
70216;SDS011;65567;55.684;37.570;2023-07-29T05:22:51;4.38;;;2.70;;
70216;SDS011;65567;55.684;37.570;2023-07-29T05:25:17;6.15;;;2.90;;
70216;SDS011;65567;55.684;37.570;2023-07-29T05:27:42;4.70;;;3.42;;
70216;SDS011;65567;55.684;37.570;2023-07-29T05:30:08;4.32;;;2.70;;
70216;SDS011;65567;55.684;37.570;2023-07-29T05:32:33;5.85;;;2.67;;
70216;SDS011;65567;55.684;37.570;2023-07-29T05:34:59;5.18;;;2.88;;
70216;SDS011;65567;55.684;37.570;2023-07-29T05:37:24;4.75;;;2.50;;
70216;SDS011;65567;55.684;37.570;2023-07-29T05:39:50;4.25;;;2.60;;
70216;SDS011;65567;55.684;37.570;2023-07-29T05:42:15;4.90;;;2.45;;
70216;SDS011;65567;55.684;37.570;2023-07-29T05:44:40;3.08;;;2.20;;
70216;SDS011;65567;55.684;37.570;2023-07-29T05:47:06;4.45;;;2.60;;
70216;SDS011;65567;55.684;37.570;2023-07-29T05:49:31;3.00;;;2.10;;
70216;SDS011;65567;55.684;37.570;2023-07-29T05:51:57;5.50;;;2.42;;
70216;SDS011;65567;55.684;37.570;2023-07-29T05:54:22;3.75;;;2.33;;
70216;SDS011;65567;55.684;37.570;2023-07-29T05:56:48;3.92;;;2.45;;
70216;SDS011;65567;55.684;37.570;2023-07-29T05:59:13;5.45;;;3.10;;
70216;SDS011;65567;55.684;37.570;2023-07-29T06:01:39;4.03;;;2.70;;
70216;SDS011;65567;55.684;37.570;2023-07-29T06:04:04;11.80;;;8.38;;
70216;SDS011;65567;55.684;37.570;2023-07-29T06:06:30;5.35;;;3.00;;
70216;SDS011;65567;55.684;37.570;2023-07-29T06:08:55;5.88;;;2.90;;
70216;SDS011;65567;55.684;37.570;2023-07-29T06:11:21;5.10;;;2.80;;
70216;SDS011;65567;55.684;37.570;2023-07-29T06:13:47;4.70;;;2.92;;
70216;SDS011;65567;55.684;37.570;2023-07-29T06:16:12;4.68;;;2.83;;
70216;SDS011;65567;55.684;37.570;2023-07-29T06:18:38;4.95;;;2.97;;
70216;SDS011;65567;55.684;37.570;2023-07-29T06:21:03;6.40;;;2.60;;
70216;SDS011;65567;55.684;37.570;2023-07-29T06:23:32;4.55;;;2.70;;
70216;SDS011;65567;55.684;37.570;2023-07-29T06:26:01;3.47;;;2.45;;
70216;SDS011;65567;55.684;37.570;2023-07-29T06:28:26;6.88;;;2.90;;
70216;SDS011;65567;55.684;37.570;2023-07-29T06:30:52;4.88;;;2.70;;
70216;SDS011;65567;55.684;37.570;2023-07-29T06:33:18;7.20;;;3.25;;
70216;SDS011;65567;55.684;37.570;2023-07-29T06:35:43;7.18;;;2.70;;
70216;SDS011;65567;55.684;37.570;2023-07-29T06:41:21;6.47;;;2.80;;
70216;SDS011;65567;55.684;37.570;2023-07-29T06:43:47;5.25;;;2.95;;
70216;SDS011;65567;55.684;37.570;2023-07-29T06:46:12;7.93;;;2.92;;
70216;SDS011;65567;55.684;37.570;2023-07-29T06:48:38;4.10;;;2.80;;
70216;SDS011;65567;55.684;37.570;2023-07-29T06:51:03;6.00;;;2.95;;
70216;SDS011;65567;55.684;37.570;2023-07-29T06:53:38;4.00;;;2.58;;
70216;SDS011;65567;55.684;37.570;2023-07-29T06:56:03;4.60;;;2.67;;
70216;SDS011;65567;55.684;37.570;2023-07-29T06:58:29;4.28;;;2.83;;
70216;SDS011;65567;55.684;37.570;2023-07-29T07:00:55;3.90;;;2.75;;
70216;SDS011;65567;55.684;37.570;2023-07-29T07:03:20;5.68;;;3.00;;
70216;SDS011;65567;55.684;37.570;2023-07-29T07:05:46;5.30;;;2.90;;
70216;SDS011;65567;55.684;37.570;2023-07-29T07:08:11;3.60;;;2.50;;
70216;SDS011;65567;55.684;37.570;2023-07-29T07:10:36;4.38;;;2.63;;
70216;SDS011;65567;55.684;37.570;2023-07-29T07:13:02;6.82;;;2.97;;
70216;SDS011;65567;55.684;37.570;2023-07-29T07:15:27;6.78;;;3.33;;
70216;SDS011;65567;55.684;37.570;2023-07-29T07:17:53;5.18;;;3.53;;
70216;SDS011;65567;55.684;37.570;2023-07-29T07:20:18;5.75;;;3.00;;
70216;SDS011;65567;55.684;37.570;2023-07-29T07:22:44;5.60;;;3.55;;
70216;SDS011;65567;55.684;37.570;2023-07-29T07:25:09;5.22;;;3.40;;
70216;SDS011;65567;55.684;37.570;2023-07-29T07:27:35;4.85;;;2.92;;
70216;SDS011;65567;55.684;37.570;2023-07-29T07:30:01;4.68;;;3.42;;
70216;SDS011;65567;55.684;37.570;2023-07-29T07:32:27;5.60;;;3.03;;
70216;SDS011;65567;55.684;37.570;2023-07-29T07:34:53;5.38;;;3.28;;
70216;SDS011;65567;55.684;37.570;2023-07-29T07:37:18;5.95;;;2.97;;
70216;SDS011;65567;55.684;37.570;2023-07-29T07:39:44;5.13;;;2.85;;
70216;SDS011;65567;55.684;37.570;2023-07-29T07:42:09;4.22;;;3.05;;
70216;SDS011;65567;55.684;37.570;2023-07-29T07:44:34;6.03;;;3.45;;
70216;SDS011;65567;55.684;37.570;2023-07-29T07:47:00;11.27;;;3.95;;
70216;SDS011;65567;55.684;37.570;2023-07-29T07:49:25;5.53;;;3.75;;
70216;SDS011;65567;55.684;37.570;2023-07-29T07:51:51;5.20;;;3.40;;
70216;SDS011;65567;55.684;37.570;2023-07-29T07:54:16;6.50;;;3.60;;
70216;SDS011;65567;55.684;37.570;2023-07-29T07:56:42;8.48;;;4.00;;
70216;SDS011;65567;55.684;37.570;2023-07-29T07:59:08;6.18;;;3.88;;
70216;SDS011;65567;55.684;37.570;2023-07-29T08:01:40;5.10;;;3.15;;
70216;SDS011;65567;55.684;37.570;2023-07-29T08:04:06;7.50;;;3.42;;
70216;SDS011;65567;55.684;37.570;2023-07-29T08:06:31;6.55;;;3.63;;
70216;SDS011;65567;55.684;37.570;2023-07-29T08:08:57;5.53;;;3.15;;
70216;SDS011;65567;55.684;37.570;2023-07-29T08:11:23;6.38;;;3.13;;
70216;SDS011;65567;55.684;37.570;2023-07-29T08:13:49;4.70;;;3.28;;
70216;SDS011;65567;55.684;37.570;2023-07-29T08:16:14;5.53;;;3.33;;
70216;SDS011;65567;55.684;37.570;2023-07-29T08:18:40;4.65;;;2.97;;
70216;SDS011;65567;55.684;37.570;2023-07-29T08:21:05;4.53;;;3.30;;
70216;SDS011;65567;55.684;37.570;2023-07-29T08:23:31;3.78;;;2.80;;
70216;SDS011;65567;55.684;37.570;2023-07-29T08:25:58;4.38;;;2.95;;
70216;SDS011;65567;55.684;37.570;2023-07-29T08:28:27;3.92;;;2.60;;
70216;SDS011;65567;55.684;37.570;2023-07-29T08:30:53;4.78;;;3.10;;
70216;SDS011;65567;55.684;37.570;2023-07-29T08:33:19;4.03;;;2.63;;
70216;SDS011;65567;55.684;37.570;2023-07-29T08:35:44;5.90;;;3.00;;
70216;SDS011;65567;55.684;37.570;2023-07-29T08:38:10;3.85;;;2.65;;
70216;SDS011;65567;55.684;37.570;2023-07-29T08:40:36;5.78;;;3.30;;
70216;SDS011;65567;55.684;37.570;2023-07-29T08:43:06;4.07;;;3.10;;
70216;SDS011;65567;55.684;37.570;2023-07-29T08:45:34;6.35;;;3.25;;
70216;SDS011;65567;55.684;37.570;2023-07-29T08:48:02;5.05;;;3.00;;
70216;SDS011;65567;55.684;37.570;2023-07-29T08:50:32;5.32;;;3.05;;
70216;SDS011;65567;55.684;37.570;2023-07-29T08:52:59;5.82;;;3.30;;
70216;SDS011;65567;55.684;37.570;2023-07-29T08:55:25;5.95;;;3.10;;
70216;SDS011;65567;55.684;37.570;2023-07-29T08:57:51;7.57;;;3.20;;
70216;SDS011;65567;55.684;37.570;2023-07-29T09:00:17;5.05;;;3.30;;
70216;SDS011;65567;55.684;37.570;2023-07-29T09:02:44;8.18;;;4.07;;
70216;SDS011;65567;55.684;37.570;2023-07-29T09:05:10;8.55;;;3.50;;
70216;SDS011;65567;55.684;37.570;2023-07-29T09:07:35;5.35;;;3.60;;
70216;SDS011;65567;55.684;37.570;2023-07-29T09:10:02;23.48;;;4.68;;
70216;SDS011;65567;55.684;37.570;2023-07-29T09:12:27;7.18;;;3.67;;
70216;SDS011;65567;55.684;37.570;2023-07-29T09:14:53;6.05;;;3.60;;
70216;SDS011;65567;55.684;37.570;2023-07-29T09:17:19;6.38;;;4.10;;
70216;SDS011;65567;55.684;37.570;2023-07-29T09:19:48;6.88;;;3.47;;
70216;SDS011;65567;55.684;37.570;2023-07-29T09:22:19;13.55;;;3.97;;
70216;SDS011;65567;55.684;37.570;2023-07-29T09:24:45;14.35;;;4.45;;
70216;SDS011;65567;55.684;37.570;2023-07-29T09:27:27;5.85;;;3.53;;
70216;SDS011;65567;55.684;37.570;2023-07-29T09:29:57;18.77;;;5.35;;
70216;SDS011;65567;55.684;37.570;2023-07-29T09:32:23;8.50;;;4.40;;
70216;SDS011;65567;55.684;37.570;2023-07-29T09:34:50;9.75;;;4.20;;
70216;SDS011;65567;55.684;37.570;2023-07-29T09:37:22;7.35;;;3.78;;
70216;SDS011;65567;55.684;37.570;2023-07-29T09:39:49;16.02;;;5.80;;
70216;SDS011;65567;55.684;37.570;2023-07-29T09:42:21;10.27;;;4.70;;
70216;SDS011;65567;55.684;37.570;2023-07-29T09:44:48;6.97;;;3.88;;
70216;SDS011;65567;55.684;37.570;2023-07-29T09:47:21;5.90;;;3.53;;
70216;SDS011;65567;55.684;37.570;2023-07-29T09:49:47;8.98;;;3.97;;
70216;SDS011;65567;55.684;37.570;2023-07-29T09:52:17;8.77;;;4.43;;
70216;SDS011;65567;55.684;37.570;2023-07-29T09:54:43;9.02;;;3.78;;
70216;SDS011;65567;55.684;37.570;2023-07-29T09:57:10;23.10;;;6.03;;
70216;SDS011;65567;55.684;37.570;2023-07-29T09:59:42;7.10;;;4.20;;
70216;SDS011;65567;55.684;37.570;2023-07-29T10:02:09;11.88;;;4.75;;
70216;SDS011;65567;55.684;37.570;2023-07-29T10:04:43;6.97;;;4.65;;
70216;SDS011;65567;55.684;37.570;2023-07-29T10:07:09;6.68;;;4.57;;
70216;SDS011;65567;55.684;37.570;2023-07-29T10:09:36;8.82;;;4.35;;
70216;SDS011;65567;55.684;37.570;2023-07-29T10:12:03;8.10;;;4.00;;
70216;SDS011;65567;55.684;37.570;2023-07-29T10:14:31;7.53;;;4.13;;
70216;SDS011;65567;55.684;37.570;2023-07-29T10:16:57;6.63;;;4.25;;
70216;SDS011;65567;55.684;37.570;2023-07-29T10:19:24;8.43;;;6.00;;
70216;SDS011;65567;55.684;37.570;2023-07-29T10:21:51;8.63;;;4.90;;
70216;SDS011;65567;55.684;37.570;2023-07-29T10:24:24;5.45;;;4.05;;
70216;SDS011;65567;55.684;37.570;2023-07-29T10:26:57;6.03;;;4.15;;
70216;SDS011;65567;55.684;37.570;2023-07-29T10:29:24;5.22;;;4.10;;
70216;SDS011;65567;55.684;37.570;2023-07-29T10:31:53;8.38;;;4.68;;
70216;SDS011;65567;55.684;37.570;2023-07-29T10:34:20;6.45;;;4.25;;
70216;SDS011;65567;55.684;37.570;2023-07-29T10:36:47;6.47;;;4.45;;
70216;SDS011;65567;55.684;37.570;2023-07-29T10:39:13;4.85;;;3.83;;
70216;SDS011;65567;55.684;37.570;2023-07-29T10:47:14;5.53;;;4.32;;
70216;SDS011;65567;55.684;37.570;2023-07-29T10:49:42;7.50;;;4.88;;
70216;SDS011;65567;55.684;37.570;2023-07-29T10:52:12;5.70;;;4.80;;
70216;SDS011;65567;55.684;37.570;2023-07-29T10:54:42;6.45;;;4.28;;
70216;SDS011;65567;55.684;37.570;2023-07-29T10:57:15;7.03;;;4.60;;
70216;SDS011;65567;55.684;37.570;2023-07-29T10:59:55;6.18;;;4.22;;
70216;SDS011;65567;55.684;37.570;2023-07-29T11:02:22;7.35;;;5.25;;
70216;SDS011;65567;55.684;37.570;2023-07-29T11:04:54;7.88;;;5.28;;
70216;SDS011;65567;55.684;37.570;2023-07-29T11:07:20;6.97;;;5.20;;
70216;SDS011;65567;55.684;37.570;2023-07-29T11:17:36;13.30;;;5.38;;
70216;SDS011;65567;55.684;37.570;2023-07-29T11:20:14;8.85;;;4.78;;
70216;SDS011;65567;55.684;37.570;2023-07-29T11:22:43;7.40;;;5.10;;
70216;SDS011;65567;55.684;37.570;2023-07-29T11:25:09;7.32;;;4.63;;
70216;SDS011;65567;55.684;37.570;2023-07-29T11:27:39;7.88;;;5.25;;
70216;SDS011;65567;55.684;37.570;2023-07-29T11:30:05;8.20;;;4.63;;
70216;SDS011;65567;55.684;37.570;2023-07-29T11:32:35;8.02;;;4.90;;
70216;SDS011;65567;55.684;37.570;2023-07-29T11:35:06;6.85;;;5.03;;
70216;SDS011;65567;55.684;37.570;2023-07-29T11:37:33;9.73;;;5.50;;
70216;SDS011;65567;55.684;37.570;2023-07-29T11:39:59;7.05;;;5.40;;
70216;SDS011;65567;55.684;37.570;2023-07-29T11:42:26;8.35;;;5.30;;
70216;SDS011;65567;55.684;37.570;2023-07-29T11:44:52;6.93;;;4.97;;
70216;SDS011;65567;55.684;37.570;2023-07-29T11:47:17;9.35;;;5.20;;
70216;SDS011;65567;55.684;37.570;2023-07-29T11:49:43;8.60;;;4.50;;
70216;SDS011;65567;55.684;37.570;2023-07-29T11:52:09;8.80;;;4.45;;
70216;SDS011;65567;55.684;37.570;2023-07-29T11:54:35;7.60;;;5.15;;
70216;SDS011;65567;55.684;37.570;2023-07-29T11:57:10;8.13;;;4.47;;
70216;SDS011;65567;55.684;37.570;2023-07-29T11:59:37;7.30;;;4.70;;
70216;SDS011;65567;55.684;37.570;2023-07-29T12:02:11;6.85;;;4.03;;
70216;SDS011;65567;55.684;37.570;2023-07-29T12:04:41;7.57;;;4.45;;
70216;SDS011;65567;55.684;37.570;2023-07-29T12:07:08;6.72;;;3.95;;
70216;SDS011;65567;55.684;37.570;2023-07-29T12:09:34;6.68;;;4.30;;
70216;SDS011;65567;55.684;37.570;2023-07-29T12:12:03;5.22;;;3.90;;
70216;SDS011;65567;55.684;37.570;2023-07-29T12:14:30;5.40;;;3.25;;
70216;SDS011;65567;55.684;37.570;2023-07-29T12:16:55;6.15;;;3.53;;
70216;SDS011;65567;55.684;37.570;2023-07-29T12:30:46;6.80;;;3.33;;
70216;SDS011;65567;55.684;37.570;2023-07-29T12:33:12;9.32;;;3.65;;
70216;SDS011;65567;55.684;37.570;2023-07-29T12:35:54;9.57;;;3.50;;
70216;SDS011;65567;55.684;37.570;2023-07-29T12:38:25;6.85;;;3.97;;
70216;SDS011;65567;55.684;37.570;2023-07-29T12:40:51;7.32;;;3.83;;
70216;SDS011;65567;55.684;37.570;2023-07-29T12:43:17;6.88;;;3.50;;
70216;SDS011;65567;55.684;37.570;2023-07-29T12:45:42;7.63;;;3.30;;
70216;SDS011;65567;55.684;37.570;2023-07-29T12:48:09;8.52;;;4.35;;
70216;SDS011;65567;55.684;37.570;2023-07-29T12:50:35;8.30;;;3.63;;
70216;SDS011;65567;55.684;37.570;2023-07-29T12:53:01;13.50;;;4.68;;
70216;SDS011;65567;55.684;37.570;2023-07-29T12:55:27;8.82;;;4.93;;
70216;SDS011;65567;55.684;37.570;2023-07-29T12:57:53;9.73;;;4.30;;
70216;SDS011;65567;55.684;37.570;2023-07-29T13:00:19;9.50;;;4.80;;
70216;SDS011;65567;55.684;37.570;2023-07-29T13:02:45;5.65;;;3.20;;
70216;SDS011;65567;55.684;37.570;2023-07-29T13:05:10;17.58;;;5.65;;
70216;SDS011;65567;55.684;37.570;2023-07-29T13:07:39;10.55;;;3.72;;
70216;SDS011;65567;55.684;37.570;2023-07-29T13:10:06;6.85;;;3.40;;
70216;SDS011;65567;55.684;37.570;2023-07-29T13:12:33;17.10;;;5.18;;
70216;SDS011;65567;55.684;37.570;2023-07-29T13:14:58;7.55;;;3.65;;
70216;SDS011;65567;55.684;37.570;2023-07-29T13:17:24;6.65;;;4.22;;
70216;SDS011;65567;55.684;37.570;2023-07-29T13:19:50;4.97;;;3.00;;
70216;SDS011;65567;55.684;37.570;2023-07-29T13:22:15;6.28;;;3.15;;
70216;SDS011;65567;55.684;37.570;2023-07-29T13:24:41;9.18;;;3.53;;
70216;SDS011;65567;55.684;37.570;2023-07-29T13:27:07;5.43;;;2.83;;
70216;SDS011;65567;55.684;37.570;2023-07-29T13:29:33;8.13;;;2.83;;
70216;SDS011;65567;55.684;37.570;2023-07-29T13:31:59;6.15;;;2.50;;
70216;SDS011;65567;55.684;37.570;2023-07-29T13:34:24;4.95;;;2.40;;
70216;SDS011;65567;55.684;37.570;2023-07-29T13:36:50;5.57;;;2.15;;
70216;SDS011;65567;55.684;37.570;2023-07-29T13:39:15;5.80;;;2.50;;
70216;SDS011;65567;55.684;37.570;2023-07-29T13:41:41;5.80;;;2.50;;
70216;SDS011;65567;55.684;37.570;2023-07-29T13:44:07;6.53;;;2.30;;
70216;SDS011;65567;55.684;37.570;2023-07-29T13:46:32;4.95;;;2.47;;
70216;SDS011;65567;55.684;37.570;2023-07-29T13:48:58;4.55;;;2.53;;
70216;SDS011;65567;55.684;37.570;2023-07-29T13:51:23;4.75;;;2.45;;
70216;SDS011;65567;55.684;37.570;2023-07-29T13:53:49;5.13;;;2.50;;
70216;SDS011;65567;55.684;37.570;2023-07-29T13:56:15;6.18;;;3.05;;
70216;SDS011;65567;55.684;37.570;2023-07-29T13:58:40;4.72;;;2.80;;
70216;SDS011;65567;55.684;37.570;2023-07-29T14:01:06;4.28;;;2.55;;
70216;SDS011;65567;55.684;37.570;2023-07-29T14:03:32;4.75;;;2.42;;
70216;SDS011;65567;55.684;37.570;2023-07-29T14:05:57;5.45;;;2.40;;
70216;SDS011;65567;55.684;37.570;2023-07-29T14:08:22;3.95;;;2.35;;
70216;SDS011;65567;55.684;37.570;2023-07-29T14:10:51;4.50;;;2.03;;
70216;SDS011;65567;55.684;37.570;2023-07-29T14:13:17;6.32;;;2.60;;
70216;SDS011;65567;55.684;37.570;2023-07-29T14:15:42;3.67;;;2.38;;
70216;SDS011;65567;55.684;37.570;2023-07-29T14:18:08;5.88;;;2.33;;
70216;SDS011;65567;55.684;37.570;2023-07-29T14:20:33;4.38;;;2.00;;
70216;SDS011;65567;55.684;37.570;2023-07-29T14:22:59;5.00;;;2.22;;
70216;SDS011;65567;55.684;37.570;2023-07-29T14:25:24;7.22;;;2.53;;
70216;SDS011;65567;55.684;37.570;2023-07-29T14:27:50;4.85;;;2.33;;
70216;SDS011;65567;55.684;37.570;2023-07-29T14:30:16;4.82;;;2.30;;
70216;SDS011;65567;55.684;37.570;2023-07-29T14:32:41;4.45;;;2.40;;
70216;SDS011;65567;55.684;37.570;2023-07-29T14:35:07;11.07;;;2.65;;
70216;SDS011;65567;55.684;37.570;2023-07-29T14:37:36;3.80;;;2.80;;
70216;SDS011;65567;55.684;37.570;2023-07-29T14:40:02;9.07;;;2.90;;
70216;SDS011;65567;55.684;37.570;2023-07-29T14:42:28;7.53;;;2.28;;
70216;SDS011;65567;55.684;37.570;2023-07-29T14:44:54;6.60;;;2.53;;
70216;SDS011;65567;55.684;37.570;2023-07-29T14:47:20;6.50;;;2.55;;
70216;SDS011;65567;55.684;37.570;2023-07-29T14:49:46;5.15;;;2.55;;
70216;SDS011;65567;55.684;37.570;2023-07-29T14:52:12;4.80;;;3.03;;
70216;SDS011;65567;55.684;37.570;2023-07-29T14:54:37;7.22;;;2.80;;
70216;SDS011;65567;55.684;37.570;2023-07-29T14:57:05;7.13;;;2.53;;
70216;SDS011;65567;55.684;37.570;2023-07-29T14:59:32;9.18;;;4.07;;
70216;SDS011;65567;55.684;37.570;2023-07-29T15:01:58;7.38;;;3.60;;
70216;SDS011;65567;55.684;37.570;2023-07-29T15:04:24;8.35;;;2.90;;